createdAt,value
2022-10-19T00:01:19.538Z,12.50
2022-10-19T00:06:30.748Z,12.50
2022-10-19T00:09:06.842Z,12.40
2022-10-19T00:11:35.614Z,12.40
2022-10-19T00:14:03.579Z,12.40
2022-10-19T00:16:33.907Z,12.40
2022-10-19T00:19:03.170Z,12.30
2022-10-19T00:21:30.045Z,12.30
2022-10-19T00:23:57.127Z,12.30
2022-10-19T00:26:24.501Z,12.30
2022-10-19T00:28:54.855Z,12.30
2022-10-19T00:31:21.873Z,12.30
2022-10-19T00:33:48.710Z,12.20
2022-10-19T00:36:22.292Z,12.10
2022-10-19T00:38:49.668Z,12.10
2022-10-19T00:41:19.156Z,12.10
2022-10-19T00:43:52.135Z,12.00
2022-10-19T00:46:18.938Z,12.10
2022-10-19T00:48:45.979Z,12.00
2022-10-19T00:51:13.592Z,11.90
2022-10-19T00:53:41.236Z,12.00
2022-10-19T00:56:13.170Z,11.90
2022-10-19T00:58:42.426Z,11.90
2022-10-19T01:01:16.777Z,11.70
2022-10-19T01:03:44.869Z,11.70
2022-10-19T01:06:14.846Z,11.70
2022-10-19T01:08:41.702Z,11.60
2022-10-19T01:11:18.071Z,11.70
2022-10-19T01:14:26.920Z,11.50
2022-10-19T01:17:20.930Z,11.60
2022-10-19T01:20:23.214Z,11.50
2022-10-19T01:23:14.271Z,11.40
2022-10-19T01:26:08.172Z,11.40
2022-10-19T01:28:37.782Z,11.40
2022-10-19T01:31:23.218Z,11.40
2022-10-19T01:34:03.776Z,11.30
2022-10-19T01:36:53.885Z,11.40
2022-10-19T01:39:52.003Z,11.30
2022-10-19T01:42:18.750Z,11.20
2022-10-19T01:44:53.499Z,11.20
2022-10-19T01:47:39.565Z,11.30
2022-10-19T01:50:16.296Z,11.20
2022-10-19T01:52:43.454Z,11.20
2022-10-19T01:55:13.871Z,11.20
2022-10-19T01:57:46.919Z,11.30
2022-10-19T02:00:16.304Z,11.20
2022-10-19T02:03:00.272Z,11.30
2022-10-19T02:05:36.085Z,11.30
2022-10-19T02:08:12.784Z,11.20
2022-10-19T02:10:42.781Z,11.20
2022-10-19T02:13:11.201Z,11.10
2022-10-19T02:15:43.776Z,11.20
2022-10-19T02:18:12.905Z,11.10
2022-10-19T02:20:40.316Z,11.10
2022-10-19T02:23:07.545Z,11.10
2022-10-19T02:25:35.543Z,11.20
2022-10-19T02:28:03.921Z,11.10
2022-10-19T02:30:30.869Z,11.20
2022-10-19T02:32:57.883Z,11.20
2022-10-19T02:35:24.751Z,11.20
2022-10-19T02:37:51.754Z,11.20
2022-10-19T02:40:18.896Z,11.20
2022-10-19T02:42:54.086Z,11.20
2022-10-19T02:45:37.860Z,11.20
2022-10-19T02:48:09.846Z,11.10
2022-10-19T02:50:36.780Z,11.10
2022-10-19T02:53:04.045Z,11.20
2022-10-19T02:55:31.545Z,11.20
2022-10-19T02:57:58.520Z,11.20
2022-10-19T03:00:25.478Z,11.20
2022-10-19T03:02:52.388Z,11.00
2022-10-19T03:05:19.175Z,11.00
2022-10-19T03:07:46.011Z,11.00
2022-10-19T03:10:12.841Z,11.00
2022-10-19T03:12:39.676Z,10.90
2022-10-19T03:15:07.082Z,10.90
2022-10-19T03:17:34.337Z,10.90
2022-10-19T03:20:01.441Z,10.80
2022-10-19T03:22:28.369Z,10.80
2022-10-19T03:24:55.185Z,10.70
2022-10-19T03:27:22.101Z,10.80
2022-10-19T03:29:49.118Z,10.70
2022-10-19T03:32:24.600Z,10.70
2022-10-19T03:34:51.389Z,10.70
2022-10-19T03:37:18.301Z,10.80
2022-10-19T03:39:45.377Z,10.60
2022-10-19T03:42:12.157Z,10.60
2022-10-19T03:44:38.960Z,10.70
2022-10-19T03:47:05.763Z,10.60
2022-10-19T03:49:34.606Z,10.60
2022-10-19T03:52:03.796Z,10.70
2022-10-19T03:54:30.704Z,10.60
2022-10-19T03:57:00.447Z,10.60
2022-10-19T03:59:27.853Z,10.60
2022-10-19T04:01:54.636Z,10.60
2022-10-19T04:04:21.640Z,10.60
2022-10-19T04:06:50.255Z,10.70
2022-10-19T04:09:20.355Z,10.60
2022-10-19T04:11:47.613Z,10.70
2022-10-19T04:14:26.677Z,10.70
2022-10-19T04:17:03.037Z,10.70
2022-10-19T04:19:30.409Z,10.70
2022-10-19T04:21:57.715Z,10.70
2022-10-19T04:24:24.643Z,10.70
2022-10-19T04:26:54.398Z,10.70
2022-10-19T04:29:25.076Z,10.70
2022-10-19T04:31:55.028Z,10.70
2022-10-19T04:34:21.881Z,10.70
2022-10-19T04:36:48.785Z,10.70
2022-10-19T04:39:15.719Z,10.70
2022-10-19T04:41:42.519Z,10.70
2022-10-19T04:44:09.990Z,10.70
2022-10-19T04:46:38.637Z,10.80
2022-10-19T04:49:06.907Z,10.70
2022-10-19T04:51:34.432Z,10.80
2022-10-19T04:54:03.084Z,10.80
2022-10-19T04:56:32.417Z,10.80
2022-10-19T04:59:00.636Z,10.80
2022-10-19T05:01:29.552Z,10.90
2022-10-19T05:03:58.665Z,10.80
2022-10-19T05:06:25.705Z,10.80
2022-10-19T05:08:52.618Z,10.80
2022-10-19T05:11:20.498Z,10.90
2022-10-19T05:13:48.129Z,10.80
2022-10-19T05:16:18.067Z,10.80
2022-10-19T05:18:49.474Z,10.80
2022-10-19T05:21:17.506Z,10.90
2022-10-19T05:23:45.213Z,10.90
2022-10-19T05:26:20.406Z,10.90
2022-10-19T05:28:52.026Z,10.90
2022-10-19T05:31:20.486Z,10.80
2022-10-19T05:33:47.765Z,10.90
2022-10-19T05:36:41.213Z,10.90
2022-10-19T05:39:16.650Z,10.90
2022-10-19T05:41:44.988Z,10.90
2022-10-19T05:44:20.861Z,11.00
2022-10-19T05:46:48.940Z,10.90
2022-10-19T05:49:17.248Z,10.90
2022-10-19T05:51:47.333Z,10.90
2022-10-19T05:54:15.074Z,10.90
2022-10-19T05:56:43.025Z,11.00
2022-10-19T05:59:14.391Z,10.90
2022-10-19T06:01:41.327Z,11.00
2022-10-19T06:04:08.485Z,11.00
2022-10-19T06:06:38.078Z,11.00
2022-10-19T06:09:05.067Z,11.10
2022-10-19T06:11:35.312Z,11.20
2022-10-19T06:14:04.926Z,11.20
2022-10-19T06:16:32.440Z,11.10
2022-10-19T06:19:00.185Z,11.20
2022-10-19T06:21:29.626Z,11.10
2022-10-19T06:24:06.744Z,11.10
2022-10-19T06:26:35.176Z,11.20
2022-10-19T06:29:04.354Z,11.20
2022-10-19T06:31:33.540Z,11.20
2022-10-19T06:34:00.530Z,11.20
2022-10-19T06:36:29.937Z,11.20
2022-10-19T06:38:57.148Z,11.30
2022-10-19T06:41:24.339Z,11.30
2022-10-19T06:43:52.782Z,11.20
2022-10-19T06:46:23.194Z,11.10
2022-10-19T06:48:55.113Z,11.20
2022-10-19T06:51:22.504Z,11.20
2022-10-19T06:53:52.972Z,11.10
2022-10-19T06:56:24.530Z,11.10
2022-10-19T06:58:51.463Z,11.10
2022-10-19T07:01:19.490Z,11.10
2022-10-19T07:03:46.416Z,11.20
2022-10-19T07:06:14.150Z,11.20
2022-10-19T07:08:42.206Z,11.40
2022-10-19T07:11:12.123Z,11.50
2022-10-19T07:13:38.961Z,11.30
2022-10-19T07:16:15.914Z,11.30
2022-10-19T07:18:52.866Z,11.40
2022-10-19T07:21:21.684Z,11.50
2022-10-19T07:23:49.193Z,11.40
2022-10-19T07:26:19.548Z,11.40
2022-10-19T07:28:47.709Z,11.60
2022-10-19T07:31:20.727Z,11.50
2022-10-19T07:33:51.821Z,11.50
2022-10-19T07:36:18.638Z,11.60
2022-10-19T07:38:45.473Z,11.50
2022-10-19T07:41:15.138Z,11.60
2022-10-19T07:43:43.401Z,11.70
2022-10-19T07:46:13.791Z,11.80
2022-10-19T07:48:51.189Z,12.00
2022-10-19T07:51:19.249Z,12.20
2022-10-19T07:53:46.814Z,12.40
2022-10-19T07:56:16.513Z,12.80
2022-10-19T07:58:44.081Z,12.80
2022-10-19T08:01:18.684Z,12.50
2022-10-19T08:06:33.268Z,12.20
2022-10-19T08:09:00.345Z,12.20
2022-10-19T08:11:29.612Z,12.30
2022-10-19T08:13:59.311Z,12.30
2022-10-19T08:16:28.118Z,12.20
2022-10-19T08:19:01.303Z,12.10
2022-10-19T08:21:29.646Z,12.00
2022-10-19T08:23:56.572Z,12.00
2022-10-19T08:26:23.443Z,12.10
2022-10-19T08:28:50.329Z,12.10
2022-10-19T08:31:20.162Z,11.90
2022-10-19T08:33:48.717Z,11.80
2022-10-19T08:36:15.609Z,11.80
2022-10-19T08:38:44.774Z,11.70
2022-10-19T08:41:23.597Z,11.60
2022-10-19T08:43:59.905Z,11.60
2022-10-19T08:46:50.055Z,11.50
2022-10-19T08:49:20.549Z,11.50
2022-10-19T08:51:53.748Z,11.30
2022-10-19T08:54:20.632Z,11.20
2022-10-19T08:57:26.321Z,11.20
2022-10-19T08:59:59.426Z,11.20
2022-10-19T09:02:44.495Z,11.10
2022-10-19T09:05:18.685Z,11.10
2022-10-19T09:07:47.849Z,11.10
2022-10-19T09:10:19.007Z,11.10
2022-10-19T09:13:17.295Z,11.20
2022-10-19T09:15:47.447Z,11.20
2022-10-19T09:18:29.484Z,11.20
2022-10-19T09:21:01.479Z,11.20
2022-10-19T09:23:43.375Z,11.20
2022-10-19T09:26:18.939Z,11.40
2022-10-19T09:29:03.722Z,11.50
2022-10-19T09:31:42.787Z,11.50
2022-10-19T09:34:22.066Z,11.50
2022-10-19T09:36:57.852Z,11.60
2022-10-19T09:39:29.300Z,11.60
2022-10-19T09:42:06.445Z,11.60
2022-10-19T09:44:34.242Z,11.60
2022-10-19T09:47:13.731Z,11.70
2022-10-19T09:49:46.637Z,11.70
2022-10-19T09:52:22.535Z,11.70
2022-10-19T09:55:02.586Z,11.90
2022-10-19T09:57:30.395Z,12.00
2022-10-19T09:59:57.621Z,12.00
2022-10-19T10:02:34.213Z,12.00
2022-10-19T10:05:09.979Z,12.30
2022-10-19T10:07:38.774Z,12.60
2022-10-19T10:10:29.740Z,12.90
2022-10-19T10:13:01.756Z,13.20
2022-10-19T10:15:57.798Z,13.50
2022-10-19T10:18:26.804Z,13.40
2022-10-19T10:21:10.728Z,13.20
2022-10-19T10:23:38.165Z,12.60
2022-10-19T10:26:15.878Z,12.30
2022-10-19T10:28:51.449Z,11.90
2022-10-19T10:31:27.651Z,11.60
2022-10-19T10:34:06.343Z,11.40
2022-10-19T10:36:43.956Z,11.20
2022-10-19T10:39:16.640Z,10.90
2022-10-19T10:41:45.412Z,10.90
2022-10-19T10:44:20.265Z,10.90
2022-10-19T10:47:02.486Z,10.90
2022-10-19T10:49:35.629Z,10.80
2022-10-19T10:52:16.767Z,10.90
2022-10-19T10:55:04.426Z,10.90
2022-10-19T10:57:38.769Z,11.00
2022-10-19T11:00:12.350Z,11.20
2022-10-19T11:02:46.512Z,11.40
2022-10-19T11:05:34.723Z,11.50
2022-10-19T11:08:05.762Z,11.50
2022-10-19T11:10:41.725Z,11.50
2022-10-19T11:13:30.281Z,11.50
2022-10-19T11:16:13.710Z,11.50
2022-10-19T11:18:48.534Z,11.70
2022-10-19T11:21:48.116Z,12.10
2022-10-19T11:24:47.870Z,12.30
2022-10-19T11:27:24.437Z,12.70
2022-10-19T11:30:04.645Z,13.20
2022-10-19T11:32:49.385Z,13.40
2022-10-19T11:35:47.841Z,13.90
2022-10-19T11:38:29.575Z,15.10
2022-10-19T11:41:18.172Z,16.20
2022-10-19T11:43:57.443Z,17.50
2022-10-19T11:46:35.011Z,18.60
2022-10-19T11:49:10.821Z,19.20
2022-10-19T11:51:57.575Z,18.90
2022-10-19T11:54:48.509Z,18.20
2022-10-19T11:57:45.283Z,18.30
2022-10-19T12:00:38.184Z,18.70
2022-10-19T12:03:38.918Z,17.90
2022-10-19T12:06:12.754Z,16.70
2022-10-19T12:08:50.095Z,16.20
2022-10-19T12:11:27.867Z,15.60
2022-10-19T12:14:00.810Z,14.90
2022-10-19T12:16:51.861Z,14.60
2022-10-19T12:19:22.808Z,14.10
2022-10-19T12:21:51.821Z,13.90
2022-10-19T12:24:23.339Z,13.60
2022-10-19T12:26:51.915Z,13.50
2022-10-19T12:29:27.851Z,13.20
2022-10-19T12:31:56.583Z,13.10
2022-10-19T12:35:04.717Z,13.00
2022-10-19T12:38:11.598Z,13.10
2022-10-19T12:40:53.695Z,13.40
2022-10-19T12:43:32.144Z,13.60
2022-10-19T12:46:42.339Z,13.50
2022-10-19T12:49:27.225Z,13.40
2022-10-19T12:51:59.099Z,13.40
2022-10-19T12:54:28.256Z,13.70
2022-10-19T12:56:57.735Z,13.80
2022-10-19T12:59:32.043Z,13.70
2022-10-19T13:02:00.736Z,13.80
2022-10-19T13:04:31.261Z,13.80
2022-10-19T13:06:58.104Z,13.90
2022-10-19T13:09:27.347Z,13.70
2022-10-19T13:12:19.348Z,14.00
2022-10-19T13:15:03.162Z,14.20
2022-10-19T13:17:49.300Z,14.30
2022-10-19T13:20:16.357Z,14.30
2022-10-19T13:23:06.019Z,14.00
2022-10-19T13:25:37.354Z,13.90
2022-10-19T13:28:07.354Z,13.90
2022-10-19T13:30:41.726Z,14.10
2022-10-19T13:33:30.412Z,13.90
2022-10-19T13:36:00.578Z,13.70
2022-10-19T13:38:39.487Z,13.50
2022-10-19T13:41:41.059Z,13.50
2022-10-19T13:44:15.280Z,13.50
2022-10-19T13:47:09.120Z,13.40
2022-10-19T13:50:16.806Z,13.50
2022-10-19T13:52:57.334Z,13.50
2022-10-19T13:56:03.115Z,13.50
2022-10-19T13:58:59.350Z,13.50
2022-10-19T14:01:29.215Z,13.30
2022-10-19T14:04:30.757Z,13.30
2022-10-19T14:07:25.126Z,13.00
2022-10-19T14:10:18.195Z,12.80
2022-10-19T14:12:46.757Z,12.50
2022-10-19T14:15:31.900Z,12.30
2022-10-19T14:18:01.290Z,12.20
2022-10-19T14:20:37.664Z,12.10
2022-10-19T14:23:40.321Z,12.10
2022-10-19T14:26:20.603Z,12.10
2022-10-19T14:28:54.246Z,12.00
2022-10-19T14:31:24.505Z,11.80
2022-10-19T14:33:54.334Z,11.60
2022-10-19T14:36:24.982Z,11.40
2022-10-19T14:38:55.539Z,11.00
2022-10-19T14:44:18.786Z,10.60
2022-10-19T14:46:48.970Z,10.40
2022-10-19T14:49:15.960Z,10.30
2022-10-19T14:51:48.983Z,10.40
2022-10-19T14:54:39.319Z,10.30
2022-10-19T14:57:13.864Z,10.30
2022-10-19T14:59:46.414Z,10.20
2022-10-19T15:02:24.375Z,10.00
2022-10-19T15:04:53.386Z,10.00
2022-10-19T15:07:39.752Z,9.90
2022-10-19T15:10:24.211Z,9.80
2022-10-19T15:12:56.995Z,9.70
2022-10-19T15:15:30.344Z,9.70
2022-10-19T15:18:00.131Z,9.70
2022-10-19T15:20:44.133Z,9.70
2022-10-19T15:23:34.191Z,9.70
2022-10-19T15:26:19.349Z,9.60
2022-10-19T15:28:46.783Z,9.60
2022-10-19T15:31:30.165Z,9.50
2022-10-19T15:34:02.013Z,9.40
2022-10-19T15:36:30.761Z,9.40
2022-10-19T15:39:25.206Z,9.40
2022-10-19T15:41:53.142Z,9.40
2022-10-19T15:44:43.719Z,9.30
2022-10-19T15:47:16.362Z,9.30
2022-10-19T15:49:43.275Z,9.30
2022-10-19T15:52:18.361Z,9.30
2022-10-19T15:54:53.990Z,9.40
2022-10-19T15:57:37.507Z,9.30
2022-10-19T16:00:20.668Z,9.30
2022-10-19T16:02:50.748Z,9.30
2022-10-19T16:05:17.940Z,9.30
2022-10-19T16:07:45.332Z,9.30
2022-10-19T16:10:19.377Z,9.20
2022-10-19T16:12:50.204Z,9.20
2022-10-19T16:15:23.338Z,9.20
2022-10-19T16:18:19.255Z,9.10
2022-10-19T16:20:51.971Z,9.10
2022-10-19T16:59:15.432Z,8.60
2022-10-19T17:02:04.359Z,8.50
2022-10-19T17:04:31.197Z,8.40
2022-10-19T17:06:58.029Z,8.50
2022-10-19T17:09:42.131Z,8.50
2022-10-19T17:12:11.538Z,8.50
2022-10-19T17:14:40.136Z,8.40
2022-10-19T17:17:37.976Z,8.40
2022-10-19T17:31:09.278Z,8.30
2022-10-19T17:33:42.368Z,8.30
2022-10-19T17:36:15.804Z,8.20
2022-10-19T17:38:55.101Z,8.20
2022-10-19T17:41:32.037Z,8.20
2022-10-19T17:43:59.050Z,8.20
2022-10-19T17:46:28.875Z,8.20
2022-10-19T18:31:57.096Z,7.80
2022-10-19T18:34:26.707Z,7.80
2022-10-19T18:37:08.193Z,7.80
2022-10-19T18:39:41.190Z,7.80
2022-10-19T18:42:08.265Z,7.80
2022-10-19T18:44:35.076Z,7.80
2022-10-19T18:47:01.883Z,7.70
2022-10-19T18:49:28.755Z,7.70
2022-10-19T18:51:56.154Z,7.60
2022-10-19T18:54:24.998Z,7.60
2022-10-19T18:56:52.040Z,7.50
2022-10-19T18:59:19.117Z,7.40
2022-10-19T19:01:46.129Z,7.30
2022-10-19T19:04:14.174Z,7.40
2022-10-19T19:06:42.201Z,7.30
2022-10-19T19:09:11.635Z,7.20
2022-10-19T19:11:40.959Z,7.20
2022-10-19T19:14:21.126Z,7.20
2022-10-19T19:16:48.824Z,7.20
2022-10-19T19:19:19.339Z,7.10
2022-10-19T19:21:47.435Z,7.00
2022-10-19T19:24:16.793Z,7.00
2022-10-19T19:26:48.482Z,7.00
2022-10-19T19:29:16.027Z,7.00
2022-10-19T19:31:45.887Z,7.00
2022-10-19T19:34:12.796Z,7.00
2022-10-19T19:36:53.162Z,6.90
2022-10-19T19:39:21.129Z,6.90
2022-10-19T19:41:49.511Z,6.90
2022-10-19T19:44:17.990Z,6.80
2022-10-19T19:46:44.840Z,6.80
2022-10-19T19:49:11.998Z,6.70
2022-10-19T19:51:38.908Z,6.70
2022-10-19T19:54:09.543Z,6.60
2022-10-19T19:56:37.627Z,6.70
2022-10-19T19:59:17.166Z,6.60
2022-10-19T20:01:53.287Z,6.50
2022-10-19T20:04:32.631Z,6.60
2022-10-19T20:07:02.497Z,6.50
2022-10-19T20:09:29.920Z,6.50
2022-10-19T20:11:57.573Z,6.50
2022-10-19T20:14:30.248Z,6.60
2022-10-19T20:17:00.037Z,6.50
2022-10-19T20:19:26.971Z,6.60
2022-10-19T20:21:56.284Z,6.50
2022-10-19T20:24:23.211Z,6.40
2022-10-19T20:26:50.185Z,6.40
2022-10-19T20:29:17.292Z,6.50
2022-10-19T20:31:44.295Z,6.40
2022-10-19T20:34:14.115Z,6.40
2022-10-19T20:36:41.596Z,6.40
2022-10-19T20:39:09.078Z,6.30
2022-10-19T20:41:36.148Z,6.30
2022-10-19T20:44:11.157Z,6.40
2022-10-19T20:46:38.136Z,6.30
2022-10-19T20:49:08.218Z,6.30
2022-10-19T20:52:03.227Z,6.20
2022-10-19T20:54:56.496Z,6.30
2022-10-19T20:57:28.803Z,6.30
2022-10-19T21:00:05.005Z,6.40
2022-10-19T21:02:49.708Z,6.40
2022-10-19T21:05:16.677Z,6.30
2022-10-19T21:07:43.760Z,6.30
2022-10-19T21:14:16.636Z,6.30
2022-10-19T21:16:43.569Z,6.40
2022-10-19T21:19:31.405Z,6.30
2022-10-19T21:22:03.566Z,6.10
2022-10-19T21:24:40.405Z,6.20
2022-10-19T21:27:09.322Z,6.10
2022-10-19T21:29:37.225Z,6.20
2022-10-19T21:32:06.423Z,6.20
2022-10-19T21:34:33.881Z,6.20
2022-10-19T21:37:01.093Z,6.00
2022-10-19T21:39:28.041Z,6.00
2022-10-19T21:41:55.231Z,6.00
2022-10-19T21:44:25.738Z,6.00
2022-10-19T21:46:53.100Z,6.10
2022-10-19T21:49:20.216Z,6.00
2022-10-19T21:51:50.644Z,6.10
2022-10-19T21:54:26.711Z,6.10
2022-10-19T21:57:05.302Z,6.10
2022-10-19T21:59:33.089Z,6.00
2022-10-19T22:02:00.117Z,6.10
2022-10-19T22:04:27.395Z,6.10
2022-10-19T22:06:54.319Z,6.10
2022-10-19T22:09:22.204Z,6.10
2022-10-19T22:11:49.254Z,6.00
2022-10-19T22:14:17.163Z,5.90
2022-10-19T22:16:44.422Z,5.90
2022-10-19T22:19:12.133Z,5.80
2022-10-19T22:21:39.169Z,5.80
2022-10-19T22:24:09.109Z,5.70
2022-10-19T22:26:42.843Z,5.80
2022-10-19T22:29:09.999Z,5.60
2022-10-19T22:31:37.612Z,5.60
2022-10-19T22:34:06.908Z,5.60
2022-10-19T22:36:34.377Z,5.60
2022-10-19T22:39:08.392Z,5.60
2022-10-19T22:41:35.341Z,5.70
2022-10-19T22:44:02.696Z,5.70
2022-10-19T22:46:29.748Z,5.60
2022-10-19T22:48:57.671Z,5.50
2022-10-19T22:51:25.135Z,5.50
2022-10-19T22:53:52.019Z,5.50
2022-10-19T22:56:19.126Z,5.50
2022-10-19T22:58:46.195Z,5.60
2022-10-19T23:01:15.190Z,5.60
2022-10-19T23:03:42.653Z,5.60
2022-10-19T23:06:17.986Z,5.60
2022-10-19T23:08:45.762Z,5.50
2022-10-19T23:11:13.067Z,5.40
2022-10-19T23:13:40.178Z,5.40
2022-10-19T23:16:07.922Z,5.30
2022-10-19T23:18:37.132Z,5.30
2022-10-19T23:21:07.527Z,5.20
2022-10-19T23:23:35.957Z,5.20
2022-10-19T23:26:12.507Z,5.20
2022-10-19T23:31:30.065Z,5.10
2022-10-19T23:33:57.614Z,5.00
2022-10-19T23:36:27.829Z,4.90
2022-10-19T23:39:00.234Z,4.80
2022-10-19T23:41:27.660Z,4.80
2022-10-19T23:44:05.275Z,4.80
2022-10-19T23:46:47.981Z,4.70
2022-10-19T23:49:16.154Z,4.60
2022-10-19T23:51:43.082Z,4.50
2022-10-19T23:54:21.965Z,4.50
2022-10-19T23:56:55.060Z,4.40
2022-10-19T23:59:25.541Z,4.30
